createdAt,value
2018-06-21T04:02:43.150Z,8.80
2018-06-21T04:05:10.189Z,9.80
2018-06-21T04:07:40.371Z,9.57
2018-06-21T04:10:13.058Z,10.37
2018-06-21T04:12:42.089Z,9.40
2018-06-21T04:15:12.633Z,9.40
2018-06-21T04:17:42.693Z,9.10
2018-06-21T04:20:14.095Z,9.40
2018-06-21T04:22:41.234Z,9.67
2018-06-21T04:25:10.998Z,9.23
2018-06-21T04:27:42.182Z,10.20
2018-06-21T04:30:10.770Z,9.60
2018-06-21T04:32:41.765Z,9.10
2018-06-21T04:35:08.843Z,10.00
2018-06-21T04:37:41.881Z,9.40
2018-06-21T04:40:09.957Z,9.80
2018-06-21T04:42:40.213Z,8.93
2018-06-21T04:45:12.980Z,8.53
2018-06-21T04:47:40.514Z,9.20
2018-06-21T04:50:12.427Z,9.60
2018-06-21T04:52:42.203Z,9.33
2018-06-21T04:55:13.684Z,10.77
2018-06-21T04:57:43.205Z,10.10
2018-06-21T05:00:12.433Z,9.20
2018-06-21T05:02:44.041Z,9.43
2018-06-21T05:05:13.756Z,9.43
2018-06-21T05:07:44.247Z,9.20
2018-06-21T05:10:14.891Z,9.67
2018-06-21T05:12:46.447Z,10.37
2018-06-21T05:15:18.549Z,9.73
2018-06-21T05:17:48.025Z,10.57
2018-06-21T05:20:20.450Z,10.43
2018-06-21T05:22:55.686Z,10.23
2018-06-21T05:25:22.738Z,10.20
2018-06-21T05:27:49.816Z,10.00
2018-06-21T05:30:16.850Z,9.23
2018-06-21T05:32:43.941Z,10.33
2018-06-21T05:35:10.997Z,10.30
2018-06-21T05:37:38.183Z,11.13
2018-06-21T05:40:05.669Z,10.60
2018-06-21T05:42:32.733Z,10.47
2018-06-21T05:44:59.850Z,10.80
2018-06-21T05:47:26.927Z,10.63
2018-06-21T05:49:54.005Z,10.50
2018-06-21T05:52:21.126Z,10.50
2018-06-21T05:54:49.890Z,9.90
2018-06-21T05:57:22.434Z,10.37
2018-06-21T05:59:52.897Z,9.90
2018-06-21T06:02:19.914Z,9.80
2018-06-21T06:04:47.001Z,9.90
2018-06-21T06:07:14.018Z,10.40
2018-06-21T06:09:41.090Z,10.60
2018-06-21T06:12:08.101Z,10.03
2018-06-21T06:14:35.098Z,10.60
2018-06-21T06:17:02.098Z,10.80
2018-06-21T06:19:29.093Z,10.30
2018-06-21T06:21:56.098Z,11.30
2018-06-21T06:24:23.086Z,11.50
2018-06-21T06:26:50.095Z,10.67
2018-06-21T06:29:17.113Z,11.23
2018-06-21T06:31:44.178Z,11.57
2018-06-21T06:34:11.197Z,12.37
2018-06-21T06:36:38.207Z,12.30
2018-06-21T06:39:14.078Z,12.30
2018-06-21T06:41:41.102Z,13.20
2018-06-21T06:44:08.710Z,12.40
2018-06-21T06:46:35.710Z,11.30
2018-06-21T06:49:02.758Z,12.97
2018-06-21T06:51:29.991Z,12.90
2018-06-21T06:53:57.050Z,12.50
2018-06-21T06:56:24.071Z,12.20
2018-06-21T06:58:51.258Z,11.47
2018-06-21T07:01:18.273Z,12.83
2018-06-21T07:03:45.300Z,11.10
2018-06-21T07:06:12.325Z,12.47
2018-06-21T07:08:39.454Z,11.73
2018-06-21T07:11:06.434Z,12.33
2018-06-21T07:13:33.424Z,11.63
2018-06-21T07:16:00.437Z,10.80
2018-06-21T07:18:27.463Z,10.50
2018-06-21T07:20:54.453Z,9.20
2018-06-21T07:23:21.448Z,9.27
2018-06-21T07:25:48.522Z,8.90
2018-06-21T07:28:15.530Z,9.70
2018-06-21T07:30:42.537Z,8.60
2018-06-21T07:33:09.550Z,9.13
2018-06-21T07:35:36.561Z,9.13
2018-06-21T07:38:03.574Z,9.23
2018-06-21T07:40:30.577Z,8.80
2018-06-21T07:42:57.573Z,8.47
2018-06-21T07:45:24.561Z,8.37
2018-06-21T07:47:51.553Z,7.00
2018-06-21T07:50:18.551Z,7.67
2018-06-21T07:52:45.621Z,7.40
2018-06-21T07:55:12.615Z,5.97
2018-06-21T07:57:39.597Z,6.63
2018-06-21T08:00:07.098Z,5.97
2018-06-21T08:02:34.209Z,5.83
2018-06-21T08:05:01.282Z,5.67
2018-06-21T08:07:28.233Z,5.27
2018-06-21T08:09:55.242Z,4.70
2018-06-21T08:12:22.330Z,5.10
2018-06-21T08:14:49.333Z,4.63
2018-06-21T08:17:16.338Z,4.80
2018-06-21T08:19:43.344Z,5.13
2018-06-21T08:22:10.349Z,4.00
2018-06-21T08:24:37.350Z,4.70
2018-06-21T08:27:04.682Z,5.63
2018-06-21T08:29:31.697Z,5.13
2018-06-21T08:31:58.709Z,4.63
2018-06-21T08:34:25.709Z,4.13
2018-06-21T08:36:52.713Z,4.00
2018-06-21T08:39:19.709Z,4.53
2018-06-21T08:41:46.706Z,3.60
2018-06-21T08:44:13.789Z,3.43
2018-06-21T08:46:40.799Z,3.70
2018-06-21T08:49:07.806Z,4.07
2018-06-21T08:51:34.833Z,4.03
2018-06-21T08:54:01.826Z,3.80
2018-06-21T08:56:28.833Z,3.77
2018-06-21T08:58:55.834Z,3.73
2018-06-21T09:01:22.826Z,3.70
2018-06-21T09:03:49.941Z,3.50
2018-06-21T09:06:16.934Z,3.27
2018-06-21T09:08:43.966Z,3.70
2018-06-21T09:11:11.277Z,3.80
2018-06-21T09:13:38.285Z,2.97
2018-06-21T09:16:06.886Z,3.47
2018-06-21T09:18:33.885Z,3.20
2018-06-21T09:21:01.329Z,3.20
2018-06-21T09:23:28.332Z,2.90
2018-06-21T09:25:55.329Z,3.23
2018-06-21T09:28:22.313Z,3.40
2018-06-21T09:30:49.663Z,3.17
2018-06-21T09:33:16.774Z,2.80
2018-06-21T09:35:43.770Z,3.07
2018-06-21T09:38:16.497Z,3.20
2018-06-21T09:40:49.182Z,3.13
2018-06-21T09:43:21.888Z,3.20
2018-06-21T09:45:54.802Z,4.47
2018-06-21T09:48:29.039Z,3.23
2018-06-21T09:50:56.153Z,3.43
2018-06-21T09:53:23.253Z,2.80
2018-06-21T09:55:50.262Z,3.07
2018-06-21T09:58:17.374Z,3.17
2018-06-21T10:00:49.963Z,3.37
2018-06-21T10:03:16.978Z,3.27
2018-06-21T10:05:43.978Z,3.50
2018-06-21T10:08:11.010Z,3.60
2018-06-21T10:10:38.013Z,3.77
2018-06-21T10:13:05.015Z,3.63
2018-06-21T10:15:32.029Z,3.93
2018-06-21T10:17:59.809Z,3.80
2018-06-21T10:20:27.062Z,3.70
2018-06-21T10:22:56.595Z,4.00
2018-06-21T10:25:26.260Z,4.43
2018-06-21T10:27:53.382Z,4.30
2018-06-21T10:30:24.758Z,3.80
2018-06-21T10:32:52.316Z,4.20
2018-06-21T10:35:19.373Z,3.60
2018-06-21T10:37:46.371Z,3.80
2018-06-21T10:40:13.478Z,3.80
2018-06-21T10:42:40.702Z,3.93
2018-06-21T10:45:07.810Z,3.47
2018-06-21T10:47:34.962Z,3.30
2018-06-21T10:50:01.978Z,3.43
2018-06-21T10:52:29.130Z,3.20
2018-06-21T10:54:56.214Z,3.17
2018-06-21T10:57:23.226Z,3.50
2018-06-21T10:59:50.246Z,3.67
2018-06-21T11:02:17.249Z,3.43
2018-06-21T11:04:44.310Z,3.60
2018-06-21T11:07:11.334Z,3.57
2018-06-21T11:09:38.356Z,3.70
2018-06-21T11:12:05.375Z,3.47
2018-06-21T11:14:32.385Z,3.70
2018-06-21T11:16:59.432Z,3.67
2018-06-21T11:19:26.447Z,3.93
2018-06-21T11:21:53.451Z,3.40
2018-06-21T11:24:20.465Z,3.23
2018-06-21T11:26:47.477Z,3.57
2018-06-21T11:29:14.493Z,4.20
2018-06-21T11:31:41.564Z,3.30
2018-06-21T11:34:08.573Z,3.30
2018-06-21T11:36:35.573Z,2.83
2018-06-21T11:39:02.943Z,3.17
2018-06-21T11:41:29.944Z,3.93
2018-06-21T11:43:56.954Z,3.43
2018-06-21T11:46:23.944Z,3.30
2018-06-21T11:48:50.975Z,3.43
2018-06-21T11:51:17.979Z,2.97
2018-06-21T11:53:44.985Z,3.20
2018-06-21T11:56:11.982Z,3.87
2018-06-21T11:58:38.994Z,2.93
2018-06-21T12:01:06.009Z,2.60
2018-06-21T12:03:33.037Z,3.03
2018-06-21T12:06:00.101Z,2.97
2018-06-21T12:08:27.129Z,2.40
2018-06-21T12:10:54.152Z,2.67
2018-06-21T12:13:21.170Z,2.60
2018-06-21T12:15:48.218Z,2.50
2018-06-21T12:18:15.345Z,2.93
2018-06-21T12:20:42.424Z,2.30
2018-06-21T12:23:09.397Z,2.90
2018-06-21T12:25:36.410Z,2.03
2018-06-21T12:28:03.474Z,2.03
2018-06-21T12:30:30.490Z,2.53
2018-06-21T12:32:57.551Z,2.83
2018-06-21T12:35:24.581Z,1.93
2018-06-21T12:37:51.578Z,2.27
2018-06-21T12:40:18.621Z,2.37
2018-06-21T12:42:45.649Z,1.90
2018-06-21T12:45:12.658Z,1.90
2018-06-21T12:47:39.709Z,2.23
2018-06-21T12:50:06.750Z,2.37
2018-06-21T12:52:33.779Z,2.10
2018-06-21T12:55:00.793Z,1.97
2018-06-21T12:57:27.809Z,1.87
2018-06-21T12:59:54.809Z,1.77
2018-06-21T13:02:21.825Z,1.90
2018-06-21T13:04:48.841Z,2.50
2018-06-21T13:07:15.916Z,2.30
2018-06-21T13:09:54.417Z,1.93
2018-06-21T13:13:36.718Z,2.10
2018-06-21T13:16:03.730Z,2.30
2018-06-21T13:18:30.746Z,2.30
2018-06-21T13:20:57.754Z,2.13
2018-06-21T13:23:24.802Z,2.40
2018-06-21T13:25:51.793Z,2.33
2018-06-21T13:28:18.806Z,2.87
2018-06-21T13:30:45.826Z,3.00
2018-06-21T13:33:12.842Z,2.43
2018-06-21T13:35:39.857Z,3.33
2018-06-21T13:38:06.882Z,3.20
2018-06-21T13:40:33.889Z,3.13
2018-06-21T13:43:00.908Z,3.67
2018-06-21T13:45:27.901Z,3.60
2018-06-21T13:47:54.923Z,4.07
2018-06-21T13:50:21.977Z,3.90
2018-06-21T13:52:48.992Z,4.33
2018-06-21T13:55:16.026Z,3.67
2018-06-21T13:57:43.031Z,3.50
2018-06-21T14:00:10.042Z,4.00
2018-06-21T14:02:37.141Z,3.50
2018-06-21T14:05:04.166Z,3.57
2018-06-21T14:07:31.183Z,3.80
2018-06-21T14:09:58.231Z,3.50
2018-06-21T14:12:25.218Z,3.27
2018-06-21T14:14:52.285Z,3.50
2018-06-21T14:17:19.258Z,3.60
2018-06-21T14:19:46.256Z,2.90
2018-06-21T14:22:13.242Z,3.10
2018-06-21T14:24:40.525Z,3.00
2018-06-21T14:27:07.527Z,2.80
2018-06-21T14:29:34.521Z,3.03
2018-06-21T14:32:01.530Z,3.30
2018-06-21T14:34:28.541Z,3.10
2018-06-21T14:36:55.594Z,3.50
2018-06-21T14:39:22.578Z,3.33
2018-06-21T14:41:49.561Z,3.13
2018-06-21T14:44:16.542Z,3.90
2018-06-21T14:46:43.541Z,3.97
2018-06-21T14:49:10.534Z,4.73
2018-06-21T14:51:37.521Z,4.80
2018-06-21T14:54:04.513Z,4.77
2018-06-21T14:56:31.523Z,5.60
2018-06-21T14:58:58.545Z,5.23
2018-06-21T15:01:25.560Z,5.17
2018-06-21T15:03:52.642Z,5.97
2018-06-21T15:06:19.712Z,6.03
2018-06-21T15:08:46.714Z,6.40
2018-06-21T15:11:13.762Z,6.80
2018-06-21T15:13:40.753Z,6.93
2018-06-21T15:16:07.770Z,6.80
2018-06-21T15:18:34.777Z,6.40
2018-06-21T15:21:01.853Z,6.60
2018-06-21T15:23:28.887Z,6.63
2018-06-21T15:25:56.056Z,7.10
2018-06-21T15:28:23.081Z,7.20
2018-06-21T15:30:50.138Z,7.20
2018-06-21T15:33:17.138Z,6.80
2018-06-21T15:35:44.121Z,7.17
2018-06-21T15:38:11.145Z,6.90
2018-06-21T15:40:38.384Z,6.20
2018-06-21T15:43:05.365Z,5.97
2018-06-21T15:45:32.400Z,7.33
2018-06-21T15:47:59.360Z,6.63
2018-06-21T15:50:26.345Z,6.83
2018-06-21T15:52:53.360Z,6.60
2018-06-21T15:55:20.314Z,6.80
2018-06-21T15:57:47.285Z,6.53
2018-06-21T16:00:14.286Z,7.00
2018-06-21T16:02:42.234Z,6.10
2018-06-21T16:05:09.385Z,5.77
2018-06-21T16:07:36.639Z,4.80
2018-06-21T16:10:04.003Z,4.70
2018-06-21T16:12:31.045Z,5.13
2018-06-21T16:14:58.037Z,5.07
2018-06-21T16:17:25.039Z,4.57
2018-06-21T16:19:52.046Z,4.57
2018-06-21T16:22:19.117Z,4.87
2018-06-21T16:24:46.201Z,4.53
2018-06-21T16:27:13.170Z,4.00
2018-06-21T16:29:40.172Z,3.07
2018-06-21T16:32:07.154Z,4.00
2018-06-21T16:34:34.157Z,3.30
2018-06-21T16:37:01.138Z,3.37
2018-06-21T16:39:28.119Z,3.20
2018-06-21T16:41:55.106Z,3.13
2018-06-21T16:44:22.168Z,3.10
2018-06-21T16:46:49.166Z,2.77
2018-06-21T16:49:16.368Z,2.60
2018-06-21T16:51:43.396Z,2.53
2018-06-21T16:54:10.594Z,2.70
2018-06-21T16:56:37.585Z,2.90
2018-06-21T16:59:04.670Z,2.70
2018-06-21T17:01:31.690Z,3.00
2018-06-21T17:03:58.719Z,2.50
2018-06-21T17:06:25.721Z,2.60
2018-06-21T17:08:52.706Z,2.40
2018-06-21T17:11:19.721Z,3.07
2018-06-21T17:13:46.722Z,2.63
2018-06-21T17:16:13.785Z,2.07
2018-06-21T17:18:40.782Z,2.20
2018-06-21T17:21:07.787Z,2.20
2018-06-21T17:23:34.781Z,2.60
2018-06-21T17:26:01.774Z,2.13
2018-06-21T17:28:28.772Z,2.27
2018-06-21T17:30:55.785Z,2.30
2018-06-21T17:33:22.775Z,2.50
2018-06-21T17:35:49.765Z,2.37
2018-06-21T17:38:16.805Z,2.50
2018-06-21T17:40:43.790Z,2.40
2018-06-21T17:43:10.774Z,2.47
2018-06-21T17:45:37.761Z,2.23
2018-06-21T17:48:04.749Z,2.20
2018-06-21T17:50:31.722Z,2.30
2018-06-21T17:52:58.723Z,1.80
2018-06-21T17:55:25.741Z,2.27
2018-06-21T17:57:52.774Z,1.93
2018-06-21T18:00:19.717Z,2.20
2018-06-21T18:02:46.713Z,2.40
2018-06-21T18:05:13.705Z,1.97
2018-06-21T18:07:40.708Z,2.13
2018-06-21T18:10:07.697Z,2.23
2018-06-21T18:12:34.731Z,1.97
2018-06-21T18:15:01.717Z,2.00
2018-06-21T18:17:28.693Z,2.10
2018-06-21T18:19:55.685Z,2.00
2018-06-21T18:22:22.710Z,2.07
2018-06-21T18:24:49.779Z,1.80
2018-06-21T18:27:16.769Z,1.80
2018-06-21T18:29:43.754Z,1.87
2018-06-21T18:32:10.754Z,1.87
2018-06-21T18:34:37.746Z,2.10
2018-06-21T18:37:04.735Z,2.70
2018-06-21T18:39:31.726Z,2.00
2018-06-21T18:41:58.738Z,1.67
2018-06-21T18:44:25.724Z,1.60
2018-06-21T18:46:52.721Z,1.73
2018-06-21T18:49:19.742Z,1.80
2018-06-21T18:51:46.776Z,1.97
2018-06-21T18:54:13.765Z,1.93
2018-06-21T18:56:40.836Z,1.80
2018-06-21T18:59:07.817Z,1.60
2018-06-21T19:01:34.833Z,2.20
2018-06-21T19:04:01.821Z,2.00
2018-06-21T19:06:34.412Z,1.63
2018-06-21T19:09:07.117Z,2.07
2018-06-21T19:11:39.796Z,1.70
2018-06-21T19:14:06.777Z,1.83
2018-06-21T19:16:33.781Z,2.47
2018-06-21T19:19:00.752Z,2.07
2018-06-21T19:21:27.758Z,1.60
2018-06-21T19:23:55.140Z,2.30
2018-06-21T19:26:22.157Z,2.00
2018-06-21T19:28:50.516Z,1.60
2018-06-21T19:31:22.989Z,1.67
2018-06-21T19:33:53.970Z,2.20
2018-06-21T19:36:24.717Z,1.50
2018-06-21T19:38:55.124Z,2.07
2018-06-21T19:41:24.470Z,1.70
2018-06-21T19:43:53.543Z,1.93
2018-06-21T19:46:20.587Z,1.40
2018-06-21T19:48:47.594Z,1.57
2018-06-21T19:51:14.594Z,2.37
2018-06-21T19:53:41.598Z,1.50
2018-06-21T19:56:08.637Z,1.50
2018-06-21T19:58:35.662Z,1.60
2018-06-21T20:01:02.698Z,1.60
2018-06-21T20:03:29.754Z,1.60
2018-06-21T20:05:56.782Z,1.40
2018-06-21T20:08:23.796Z,1.67
2018-06-21T20:10:56.465Z,1.90
2018-06-21T20:13:23.510Z,1.60
2018-06-21T20:15:51.920Z,1.60
2018-06-21T20:18:19.419Z,1.60
2018-06-21T20:20:46.460Z,1.37
2018-06-21T20:23:20.792Z,1.50
2018-06-21T20:25:47.822Z,1.90
2018-06-21T20:28:14.881Z,1.70
2018-06-21T20:30:41.913Z,2.03
2018-06-21T20:33:08.992Z,1.33
2018-06-21T20:35:36.406Z,1.50
2018-06-21T20:38:03.418Z,1.63
2018-06-21T20:40:30.483Z,1.50
2018-06-21T20:42:57.488Z,1.50
2018-06-21T20:45:24.677Z,1.27
2018-06-21T20:47:51.718Z,1.90
2018-06-21T20:50:18.788Z,2.80
2018-06-21T20:52:45.805Z,1.77
2018-06-21T20:55:12.830Z,1.50
2018-06-21T20:57:39.834Z,1.40
2018-06-21T21:00:06.872Z,1.30
2018-06-21T21:02:33.870Z,1.40
2018-06-21T21:05:07.636Z,1.40
2018-06-21T21:07:34.985Z,1.70
2018-06-21T21:10:02.454Z,1.90
2018-06-21T21:12:29.587Z,1.70
2018-06-21T21:14:56.607Z,1.30
2018-06-21T21:17:23.805Z,1.70
2018-06-21T21:19:53.210Z,1.57
2018-06-21T21:22:21.281Z,1.70
2018-06-21T21:24:48.402Z,1.40
2018-06-21T21:27:15.753Z,1.30
2018-06-21T21:29:42.740Z,1.40
2018-06-21T21:32:09.824Z,1.53
2018-06-21T21:34:36.821Z,1.77
2018-06-21T21:37:03.914Z,1.47
2018-06-21T21:39:30.920Z,1.50
2018-06-21T21:41:57.925Z,1.90
2018-06-21T21:44:24.918Z,1.30
2018-06-21T21:46:51.922Z,1.30
2018-06-21T21:49:18.945Z,1.30
2018-06-21T21:51:45.957Z,1.87
2018-06-21T21:54:13.475Z,1.50
2018-06-21T21:56:40.534Z,1.30
2018-06-21T21:59:07.536Z,1.90
2018-06-21T22:01:34.586Z,1.60
2018-06-21T22:04:01.605Z,1.57
2018-06-21T22:06:28.671Z,1.30
2018-06-21T22:08:55.642Z,1.70
2018-06-21T22:11:22.638Z,1.30
2018-06-21T22:13:54.254Z,1.30
2018-06-21T22:16:21.230Z,1.10
2018-06-21T22:18:48.229Z,1.40
2018-06-21T22:21:15.233Z,1.60
2018-06-21T22:23:42.213Z,1.47
2018-06-21T22:26:13.097Z,1.50
2018-06-21T22:28:41.796Z,1.40
2018-06-21T22:31:08.804Z,1.70
2018-06-21T22:33:35.785Z,1.40
2018-06-21T22:36:02.761Z,1.53
2018-06-21T22:38:29.754Z,1.40
2018-06-21T22:40:56.753Z,1.33
2018-06-21T22:43:23.734Z,1.60
2018-06-21T22:45:50.728Z,1.43
2018-06-21T22:48:17.727Z,1.77
2018-06-21T22:50:44.714Z,1.33
2018-06-21T22:53:12.773Z,1.33
2018-06-21T22:55:39.803Z,1.60
2018-06-21T22:58:06.846Z,1.23
2018-06-21T23:00:33.802Z,2.07
2018-06-21T23:03:00.797Z,1.43
2018-06-21T23:05:27.868Z,1.40
2018-06-21T23:07:54.827Z,1.73
2018-06-21T23:10:21.906Z,1.80
2018-06-21T23:12:48.916Z,1.43
2018-06-21T23:15:15.938Z,1.33
2018-06-21T23:17:42.930Z,1.40
2018-06-21T23:20:09.924Z,1.40
2018-06-21T23:22:36.923Z,1.70
2018-06-21T23:25:03.948Z,1.40
2018-06-21T23:27:30.941Z,1.60
2018-06-21T23:29:57.944Z,2.07
2018-06-21T23:32:24.917Z,1.50
2018-06-21T23:34:51.926Z,1.73
2018-06-21T23:37:18.897Z,1.53
2018-06-21T23:39:45.892Z,1.63
2018-06-21T23:42:12.873Z,1.63
2018-06-21T23:44:39.862Z,1.47
2018-06-21T23:47:06.845Z,1.50
2018-06-21T23:49:33.829Z,1.40
2018-06-21T23:52:00.818Z,1.37
2018-06-21T23:54:27.802Z,1.63
2018-06-21T23:56:54.785Z,1.83
2018-06-21T23:59:21.770Z,1.53
